createdAt,value
2022-10-06T00:00:44.345Z,9.668003
2022-10-06T00:01:44.328Z,9.668001
2022-10-06T00:02:44.332Z,9.667981
2022-10-06T00:03:44.290Z,9.667975
2022-10-06T00:04:44.285Z,9.667976
2022-10-06T00:05:44.302Z,9.667994
2022-10-06T00:06:44.243Z,9.668027
2022-10-06T00:07:44.244Z,9.668048
2022-10-06T00:08:45.287Z,9.668039
2022-10-06T00:09:44.255Z,9.668093
2022-10-06T00:10:44.246Z,9.667983
2022-10-06T00:11:44.264Z,9.667986
2022-10-06T00:12:44.202Z,9.667973
2022-10-06T00:13:44.224Z,9.667975
2022-10-06T00:14:44.205Z,9.668013
2022-10-06T00:15:44.304Z,9.668016
2022-10-06T00:16:44.184Z,9.667982
2022-10-06T00:17:44.162Z,9.667976
2022-10-06T00:18:44.194Z,9.667993
2022-10-06T00:19:44.182Z,9.667974
2022-10-06T00:20:44.166Z,9.667982
2022-10-06T00:21:44.120Z,9.668015
2022-10-06T00:22:44.130Z,9.668009
2022-10-06T00:23:44.118Z,9.668035
2022-10-06T00:24:44.142Z,9.668042
2022-10-06T00:25:44.133Z,9.668026
2022-10-06T00:26:44.127Z,9.668018
2022-10-06T00:27:44.165Z,9.668016
2022-10-06T00:28:44.277Z,9.668034
2022-10-06T00:29:44.097Z,9.668015
2022-10-06T00:30:44.124Z,9.667996
2022-10-06T00:31:44.080Z,9.667998
2022-10-06T00:32:44.058Z,9.667982
2022-10-06T00:33:44.017Z,9.668065
2022-10-06T00:34:44.027Z,9.668068
2022-10-06T00:35:44.063Z,9.668056
2022-10-06T00:36:44.001Z,9.668013
2022-10-06T00:37:44.017Z,9.668023
2022-10-06T00:38:44.095Z,9.668041
2022-10-06T00:39:44.308Z,9.668031
2022-10-06T00:40:44.110Z,9.668011
2022-10-06T00:41:44.060Z,9.667992
2022-10-06T00:42:43.979Z,9.667952
2022-10-06T00:43:43.974Z,9.668020
2022-10-06T00:44:44.044Z,9.668038
2022-10-06T00:45:43.960Z,9.668019
2022-10-06T00:46:44.018Z,9.668022
2022-10-06T00:47:43.963Z,9.668027
2022-10-06T00:48:43.915Z,9.668062
2022-10-06T00:49:44.014Z,9.668023
2022-10-06T00:50:43.903Z,9.668056
2022-10-06T00:51:43.942Z,9.668012
2022-10-06T00:52:44.889Z,9.667996
2022-10-06T00:53:43.902Z,9.668058
2022-10-06T00:54:43.925Z,9.668039
2022-10-06T00:55:43.869Z,9.668007
2022-10-06T00:56:43.923Z,9.668051
2022-10-06T00:57:43.863Z,9.668021
2022-10-06T00:58:43.848Z,9.668019
2022-10-06T00:59:43.863Z,9.668030
2022-10-06T01:00:43.842Z,9.668036
2022-10-06T01:01:43.898Z,9.668013
2022-10-06T01:02:43.905Z,9.668022
2022-10-06T01:03:43.803Z,9.668059
2022-10-06T01:04:43.816Z,9.668038
2022-10-06T01:05:43.829Z,9.668035
2022-10-06T01:06:43.793Z,9.668015
2022-10-06T01:07:43.840Z,9.668017
2022-10-06T01:08:43.760Z,9.668015
2022-10-06T01:09:43.775Z,9.668039
2022-10-06T01:10:43.927Z,9.668066
2022-10-06T01:11:44.390Z,9.668078
2022-10-06T01:12:43.763Z,9.668026
2022-10-06T01:13:43.708Z,9.668032
2022-10-06T01:14:43.749Z,9.668058
2022-10-06T01:15:43.772Z,9.668057
2022-10-06T01:16:43.774Z,9.668046
2022-10-06T01:17:43.708Z,9.668071
2022-10-06T01:18:43.741Z,9.668067
2022-10-06T01:19:43.861Z,9.668050
2022-10-06T01:20:43.695Z,9.668077
2022-10-06T01:21:43.711Z,9.668094
2022-10-06T01:22:43.678Z,9.668017
2022-10-06T01:23:43.806Z,9.668058
2022-10-06T01:24:43.659Z,9.668073
2022-10-06T01:25:43.660Z,9.668071
2022-10-06T01:26:43.641Z,9.668085
2022-10-06T01:27:43.655Z,9.668101
2022-10-06T01:28:43.649Z,9.668071
2022-10-06T01:29:43.632Z,9.668056
2022-10-06T01:30:43.632Z,9.668062
2022-10-06T01:31:44.754Z,9.668096
2022-10-06T01:32:43.570Z,9.668127
2022-10-06T01:33:43.644Z,9.668086
2022-10-06T01:34:43.737Z,9.668036
2022-10-06T01:35:43.605Z,9.668082
2022-10-06T01:36:44.583Z,9.668096
2022-10-06T01:37:43.557Z,9.668058
2022-10-06T01:38:43.570Z,9.667992
2022-10-06T01:39:43.554Z,9.668059
2022-10-06T01:40:43.546Z,9.668067
2022-10-06T01:41:43.624Z,9.668013
2022-10-06T01:42:43.528Z,9.668085
2022-10-06T01:43:43.525Z,9.668043
2022-10-06T01:44:43.523Z,9.668035
2022-10-06T02:04:20.806Z,9.668000
2022-10-06T02:05:21.011Z,9.667945
2022-10-06T02:06:20.831Z,9.667873
2022-10-06T02:07:20.710Z,9.667924
2022-10-06T02:08:20.705Z,9.667911
2022-10-06T02:09:20.858Z,9.667929
2022-10-06T02:10:20.725Z,9.667907
2022-10-06T02:11:20.647Z,9.667920
2022-10-06T02:12:20.663Z,9.667945
2022-10-06T02:13:20.690Z,9.667930
2022-10-06T02:14:20.642Z,9.667902
2022-10-06T02:15:20.676Z,9.667931
2022-10-06T02:16:20.708Z,9.667955
2022-10-06T02:17:20.641Z,9.667908
2022-10-06T02:18:20.625Z,9.667915
2022-10-06T02:19:20.618Z,9.667974
2022-10-06T02:20:20.615Z,9.667989
2022-10-06T02:21:20.595Z,9.667982
2022-10-06T02:22:20.574Z,9.667953
2022-10-06T02:23:20.561Z,9.667952
2022-10-06T02:24:20.545Z,9.667942
2022-10-06T02:25:20.852Z,9.667964
2022-10-06T02:26:20.550Z,9.667952
2022-10-06T02:27:20.524Z,9.667991
2022-10-06T02:28:20.686Z,9.667954
2022-10-06T02:29:20.563Z,9.667902
2022-10-06T02:30:21.525Z,9.667953
2022-10-06T02:31:20.600Z,9.667995
2022-10-06T02:32:20.528Z,9.668018
2022-10-06T02:33:20.492Z,9.668009
2022-10-06T02:34:21.329Z,9.668075
2022-10-06T02:35:20.509Z,9.668026
2022-10-06T02:36:20.474Z,9.668012
2022-10-06T02:37:20.551Z,9.668013
2022-10-06T02:38:20.444Z,9.667974
2022-10-06T02:39:20.476Z,9.667908
2022-10-06T02:40:21.265Z,9.667887
2022-10-06T02:41:20.433Z,9.667887
2022-10-06T02:42:20.457Z,9.667929
2022-10-06T02:43:20.461Z,9.667933
2022-10-06T02:44:21.090Z,9.667984
2022-10-06T02:45:20.407Z,9.667968
2022-10-06T02:46:20.483Z,9.667938
2022-10-06T02:47:20.370Z,9.667934
2022-10-06T02:48:21.723Z,9.667962
2022-10-06T02:49:20.431Z,9.667947
2022-10-06T02:50:20.405Z,9.667944
2022-10-06T02:51:20.398Z,9.667923
2022-10-06T02:52:20.369Z,9.667895
2022-10-06T02:53:20.384Z,9.667923
2022-10-06T02:54:20.320Z,9.667934
2022-10-06T02:55:20.365Z,9.667915
2022-10-06T02:56:20.332Z,9.667907
2022-10-06T02:57:20.305Z,9.667918
2022-10-06T02:58:20.347Z,9.667933
2022-10-06T02:59:20.294Z,9.667907
2022-10-06T03:00:20.288Z,9.667925
2022-10-06T03:01:20.333Z,9.667897
2022-10-06T03:02:20.407Z,9.667971
2022-10-06T03:03:20.332Z,9.667933
2022-10-06T03:04:20.297Z,9.667953
2022-10-06T03:05:20.273Z,9.667927
2022-10-06T03:06:20.254Z,9.667923
2022-10-06T03:07:20.246Z,9.667890
2022-10-06T03:08:20.226Z,9.667901
2022-10-06T03:09:20.248Z,9.667893
2022-10-06T03:10:20.257Z,9.667906
2022-10-06T03:11:20.215Z,9.667932
2022-10-06T03:12:20.236Z,9.667939
2022-10-06T03:13:20.206Z,9.667938
2022-10-06T03:14:22.054Z,9.667949
2022-10-06T03:15:21.192Z,9.667925
2022-10-06T03:16:20.220Z,9.667933
2022-10-06T03:17:20.175Z,9.667957
2022-10-06T03:18:20.192Z,9.667948
2022-10-06T03:19:20.162Z,9.667930
2022-10-06T03:20:20.148Z,9.667939
2022-10-06T03:21:20.139Z,9.667964
2022-10-06T03:22:20.131Z,9.667959
2022-10-06T03:23:20.188Z,9.668005
2022-10-06T03:24:20.192Z,9.668009
2022-10-06T03:25:20.103Z,9.667974
2022-10-06T03:26:20.091Z,9.668001
2022-10-06T03:27:20.097Z,9.667986
2022-10-06T03:28:20.181Z,9.667930
2022-10-06T03:29:20.080Z,9.667937
2022-10-06T03:30:20.082Z,9.667926
2022-10-06T03:31:20.165Z,9.667945
2022-10-06T03:32:20.042Z,9.667949
2022-10-06T03:33:20.043Z,9.667982
2022-10-06T03:34:21.154Z,9.667949
2022-10-06T03:35:20.067Z,9.667953
2022-10-06T03:36:20.074Z,9.667952
2022-10-06T03:37:20.009Z,9.667953
2022-10-06T03:38:20.005Z,9.667917
2022-10-06T03:39:19.986Z,9.667975
2022-10-06T03:40:20.116Z,9.667976
2022-10-06T03:41:19.969Z,9.667955
2022-10-06T03:42:19.959Z,9.667955
2022-10-06T03:43:19.991Z,9.667936
2022-10-06T03:44:19.956Z,9.667980
2022-10-06T03:45:20.064Z,9.667976
2022-10-06T03:46:20.049Z,9.667982
2022-10-06T04:04:43.355Z,9.668114
2022-10-06T04:05:41.526Z,9.668000
2022-10-06T04:06:41.486Z,9.668038
2022-10-06T04:07:41.496Z,9.668090
2022-10-06T04:08:41.464Z,9.668046
2022-10-06T04:09:41.476Z,9.668017
2022-10-06T04:10:41.513Z,9.668029
2022-10-06T04:11:41.504Z,9.668003
2022-10-06T04:12:41.451Z,9.668023
2022-10-06T04:13:41.430Z,9.668014
2022-10-06T04:14:41.511Z,9.667963
2022-10-06T04:15:41.414Z,9.667940
2022-10-06T04:16:41.479Z,9.667944
2022-10-06T04:17:41.341Z,9.667927
2022-10-06T04:18:41.412Z,9.667963
2022-10-06T04:19:41.436Z,9.667973
2022-10-06T04:20:41.384Z,9.667982
2022-10-06T04:21:43.902Z,9.667956
2022-10-06T04:22:41.347Z,9.667931
2022-10-06T04:23:41.427Z,9.667917
2022-10-06T04:24:41.389Z,9.668002
2022-10-06T04:25:41.375Z,9.667974
2022-10-06T04:26:41.384Z,9.667952
2022-10-06T04:27:41.325Z,9.667959
2022-10-06T04:28:41.524Z,9.667957
2022-10-06T04:29:41.325Z,9.667976
2022-10-06T04:30:42.036Z,9.668009
2022-10-06T04:31:41.349Z,9.667969
2022-10-06T04:32:41.301Z,9.667982
2022-10-06T04:33:41.326Z,9.667946
2022-10-06T04:34:41.434Z,9.667939
2022-10-06T04:35:41.275Z,9.667929
2022-10-06T04:36:41.861Z,9.668010
2022-10-06T04:37:41.234Z,9.667996
2022-10-06T04:38:41.202Z,9.667974
2022-10-06T04:39:41.325Z,9.667979
2022-10-06T04:40:41.202Z,9.667989
2022-10-06T04:41:41.204Z,9.667971
2022-10-06T04:42:41.196Z,9.667945
2022-10-06T04:43:41.193Z,9.667957
2022-10-06T04:44:41.149Z,9.667978
2022-10-06T04:45:41.235Z,9.667979
2022-10-06T04:46:44.037Z,9.667999
2022-10-06T04:47:42.163Z,9.667996
2022-10-06T04:48:41.211Z,9.667958
2022-10-06T04:49:41.220Z,9.667983
2022-10-06T04:50:41.182Z,9.667985
2022-10-06T04:51:41.862Z,9.667950
2022-10-06T04:52:41.201Z,9.667937
2022-10-06T04:53:41.237Z,9.667942
2022-10-06T04:54:41.264Z,9.667973
2022-10-06T04:55:41.137Z,9.667945
2022-10-06T04:56:41.153Z,9.667895
2022-10-06T04:57:41.094Z,9.667943
2022-10-06T04:58:41.138Z,9.667933
2022-10-06T04:59:41.184Z,9.667934
2022-10-06T05:00:41.162Z,9.667884
2022-10-06T05:01:41.113Z,9.667897
2022-10-06T05:02:41.172Z,9.667987
2022-10-06T05:03:41.100Z,9.668060
2022-10-06T05:04:41.097Z,9.667981
2022-10-06T05:05:41.049Z,9.668042
2022-10-06T05:06:41.170Z,9.668024
2022-10-06T05:07:41.044Z,9.668022
2022-10-06T05:08:41.103Z,9.668005
2022-10-06T05:09:41.162Z,9.667941
2022-10-06T05:10:41.004Z,9.667989
2022-10-06T05:11:40.976Z,9.668020
2022-10-06T05:12:40.971Z,9.668031
2022-10-06T05:13:40.984Z,9.668000
2022-10-06T05:14:40.995Z,9.667969
2022-10-06T05:15:41.006Z,9.667998
2022-10-06T05:16:41.043Z,9.667930
2022-10-06T05:17:41.037Z,9.667930
2022-10-06T05:18:41.569Z,9.667969
2022-10-06T05:19:40.997Z,9.667966
2022-10-06T05:20:41.031Z,9.668039
2022-10-06T05:21:41.901Z,9.668020
2022-10-06T05:22:41.043Z,9.668007
2022-10-06T05:23:40.933Z,9.667976
2022-10-06T05:24:41.622Z,9.667963
2022-10-06T05:25:41.901Z,9.667970
2022-10-06T05:26:41.564Z,9.667955
2022-10-06T05:27:41.871Z,9.667953
2022-10-06T05:28:41.055Z,9.667914
2022-10-06T05:29:40.902Z,9.667930
2022-10-06T05:30:41.646Z,9.667929
2022-10-06T05:31:40.981Z,9.667901
2022-10-06T05:32:41.633Z,9.667940
2022-10-06T05:33:40.877Z,9.667930
2022-10-06T05:34:40.834Z,9.667914
2022-10-06T05:35:40.897Z,9.667893
2022-10-06T05:36:40.978Z,9.667842
2022-10-06T05:37:41.715Z,9.667952
2022-10-06T05:38:41.371Z,9.667922
2022-10-06T05:39:41.374Z,9.667868
2022-10-06T05:40:40.880Z,9.667894
2022-10-06T05:41:41.691Z,9.667828
2022-10-06T05:42:41.431Z,9.667897
2022-10-06T05:43:40.778Z,9.667995
2022-10-06T05:44:40.825Z,9.667885
2022-10-06T05:45:41.660Z,9.667882
2022-10-06T05:46:41.395Z,9.667869
2022-10-06T05:47:40.723Z,9.667939
2022-10-06T05:48:40.720Z,9.667847
2022-10-06T05:49:40.795Z,9.667764
2022-10-06T05:50:41.390Z,9.667917
2022-10-06T05:51:40.817Z,9.667889
2022-10-06T05:52:40.747Z,9.667919
2022-10-06T05:53:40.710Z,9.667914
2022-10-06T05:54:40.687Z,9.667934
2022-10-06T05:55:40.746Z,9.667973
2022-10-06T05:56:40.765Z,9.667874
2022-10-06T05:57:45.889Z,9.667876
2022-10-06T05:58:40.735Z,9.667874
2022-10-06T05:59:40.741Z,9.667899
2022-10-06T06:00:40.623Z,9.667752
2022-10-06T06:01:40.692Z,9.667810
2022-10-06T06:02:40.662Z,9.667818
2022-10-06T06:03:40.643Z,9.667850
2022-10-06T06:04:41.628Z,9.667830
2022-10-06T06:05:40.630Z,9.667952
2022-10-06T06:06:40.647Z,9.667926
2022-10-06T06:07:40.695Z,9.667892
2022-10-06T06:08:40.597Z,9.667921
2022-10-06T06:09:40.701Z,9.667930
2022-10-06T06:10:42.379Z,9.667893
2022-10-06T06:11:41.379Z,9.667858
2022-10-06T06:12:40.559Z,9.667881
2022-10-06T06:13:40.532Z,9.667892
2022-10-06T06:14:41.379Z,9.667886
2022-10-06T06:15:40.646Z,9.667909
2022-10-06T06:16:41.429Z,9.667931
2022-10-06T06:17:40.599Z,9.667909
2022-10-06T06:18:40.555Z,9.667838
2022-10-06T06:19:41.291Z,9.667907
2022-10-06T06:20:40.570Z,9.667900
2022-10-06T06:21:42.100Z,9.667908
2022-10-06T06:22:40.993Z,9.667854
2022-10-06T06:23:40.540Z,9.667863
2022-10-06T06:24:40.534Z,9.667881
2022-10-06T06:25:41.393Z,9.667946
2022-10-06T06:26:41.908Z,9.667935
2022-10-06T06:27:40.424Z,9.667929
2022-10-06T06:28:40.453Z,9.667952
2022-10-06T06:29:40.456Z,9.667933
2022-10-06T06:30:40.413Z,9.667987
2022-10-06T06:31:40.437Z,9.667994
2022-10-06T06:32:40.465Z,9.667977
2022-10-06T06:33:40.376Z,9.667975
2022-10-06T06:34:41.431Z,9.667959
2022-10-06T06:35:40.446Z,9.667986
2022-10-06T06:36:40.390Z,9.667965
2022-10-06T06:37:40.355Z,9.667951
2022-10-06T06:38:40.353Z,9.667969
2022-10-06T06:39:40.487Z,9.667933
2022-10-06T06:40:40.370Z,9.667965
2022-10-06T06:41:40.360Z,9.667984
2022-10-06T06:42:41.219Z,9.667992
2022-10-06T06:43:40.392Z,9.667996
2022-10-06T06:44:40.312Z,9.667982
2022-10-06T06:45:40.395Z,9.668035
2022-10-06T06:46:41.139Z,9.667994
2022-10-06T06:47:41.106Z,9.668010
2022-10-06T06:48:41.049Z,9.668000
2022-10-06T06:49:40.354Z,9.668011
2022-10-06T06:50:40.264Z,9.667958
2022-10-06T06:51:40.279Z,9.667973
2022-10-06T06:52:40.241Z,9.667970
2022-10-06T06:53:40.222Z,9.667977
2022-10-06T06:54:40.366Z,9.667979
2022-10-06T06:55:40.905Z,9.667949
2022-10-06T06:56:40.267Z,9.667968
2022-10-06T06:57:40.279Z,9.667991
2022-10-06T06:58:40.204Z,9.667966
2022-10-06T06:59:40.392Z,9.667974
2022-10-06T07:00:40.285Z,9.667990
2022-10-06T07:01:40.328Z,9.668029
2022-10-06T07:02:44.289Z,9.668000
2022-10-06T07:03:58.026Z,9.668028
2022-10-06T07:04:42.916Z,9.668021
2022-10-06T07:05:40.230Z,9.668015
2022-10-06T07:06:40.169Z,9.668032
2022-10-06T07:07:40.156Z,9.668010
2022-10-06T07:08:42.093Z,9.668007
2022-10-06T07:09:40.806Z,9.668027
2022-10-06T07:10:40.287Z,9.668038
2022-10-06T07:11:40.300Z,9.668010
2022-10-06T07:12:41.110Z,9.668028
2022-10-06T07:13:40.090Z,9.668031
2022-10-06T07:14:40.580Z,9.668023
2022-10-06T07:15:40.782Z,9.668011
2022-10-06T07:16:40.179Z,9.667978
2022-10-06T07:17:40.082Z,9.667961
2022-10-06T07:18:40.041Z,9.667910
2022-10-06T07:19:40.038Z,9.667888
2022-10-06T07:20:40.048Z,9.667893
2022-10-06T07:21:40.144Z,9.667973
2022-10-06T07:22:40.042Z,9.667953
2022-10-06T07:23:40.071Z,9.667999
2022-10-06T07:24:40.046Z,9.667999
2022-10-06T07:25:40.020Z,9.667986
2022-10-06T07:26:39.999Z,9.668028
2022-10-06T07:27:39.988Z,9.667995
2022-10-06T07:28:40.017Z,9.668017
2022-10-06T07:29:39.973Z,9.668001
2022-10-06T07:30:40.860Z,9.667990
2022-10-06T07:31:40.994Z,9.667985
2022-10-06T07:32:41.415Z,9.668036
2022-10-06T07:33:39.941Z,9.667998
2022-10-06T07:34:40.092Z,9.668043
2022-10-06T07:35:39.961Z,9.668056
2022-10-06T07:36:39.953Z,9.668105
2022-10-06T07:37:40.012Z,9.668127
2022-10-06T07:38:39.965Z,9.668028
2022-10-06T07:39:39.882Z,9.668049
2022-10-06T07:40:46.156Z,9.668046
2022-10-06T07:41:41.937Z,9.668036
2022-10-06T07:42:39.857Z,9.668075
2022-10-06T07:43:39.883Z,9.668136
2022-10-06T07:44:39.879Z,9.668069
2022-10-06T07:45:39.988Z,9.668056
2022-10-06T07:46:39.799Z,9.668088
2022-10-06T07:47:39.854Z,9.668026
2022-10-06T07:48:39.800Z,9.667965
2022-10-06T07:49:39.864Z,9.667961
2022-10-06T07:50:39.834Z,9.668006
2022-10-06T07:51:39.887Z,9.668048
2022-10-06T07:52:39.878Z,9.668054
2022-10-06T07:53:39.899Z,9.668011
2022-10-06T07:54:40.419Z,9.668044
2022-10-06T07:55:39.823Z,9.668023
2022-10-06T07:56:39.839Z,9.668051
2022-10-06T07:57:40.416Z,9.668034
2022-10-06T07:58:39.760Z,9.668029
2022-10-06T07:59:39.785Z,9.668054
2022-10-06T08:00:39.785Z,9.668038
2022-10-06T08:01:39.961Z,9.668036
2022-10-06T08:02:39.885Z,9.668055
2022-10-06T08:03:39.804Z,9.668028
2022-10-06T08:04:39.823Z,9.668007
2022-10-06T08:05:39.710Z,9.668014
2022-10-06T08:06:39.731Z,9.668053
2022-10-06T08:07:39.676Z,9.668029
2022-10-06T08:08:40.579Z,9.668025
2022-10-06T08:09:39.670Z,9.668056
2022-10-06T08:10:40.056Z,9.668046
2022-10-06T08:11:40.421Z,9.668083
2022-10-06T08:12:40.826Z,9.668018
2022-10-06T08:13:39.725Z,9.668013
2022-10-06T08:14:39.698Z,9.668011
2022-10-06T08:15:39.716Z,9.667957
2022-10-06T08:16:39.631Z,9.668007
2022-10-06T08:17:39.634Z,9.668012
2022-10-06T08:18:46.558Z,9.668005
2022-10-06T08:19:42.421Z,9.668014
2022-10-06T08:20:40.527Z,9.668030
2022-10-06T08:21:41.190Z,9.668014
2022-10-06T08:22:40.422Z,9.668022
2022-10-06T08:23:39.581Z,9.668004
2022-10-06T08:25:04.146Z,9.667989
2022-10-06T08:25:41.532Z,9.667983
2022-10-06T08:26:39.546Z,9.668030
2022-10-06T08:27:39.535Z,9.668003
2022-10-06T08:28:39.620Z,9.668019
2022-10-06T08:29:39.609Z,9.668002
2022-10-06T08:30:40.429Z,9.667972
2022-10-06T08:31:39.627Z,9.667968
2022-10-06T08:32:39.515Z,9.668004
2022-10-06T08:33:40.709Z,9.667956
2022-10-06T08:34:39.484Z,9.667996
2022-10-06T08:35:39.601Z,9.667977
2022-10-06T08:36:39.583Z,9.667988
2022-10-06T08:37:39.484Z,9.668019
2022-10-06T08:38:39.504Z,9.667974
2022-10-06T08:39:39.446Z,9.668036
2022-10-06T08:40:39.477Z,9.668049
2022-10-06T08:41:39.406Z,9.668041
2022-10-06T08:42:39.440Z,9.667978
2022-10-06T08:43:39.444Z,9.667967
2022-10-06T08:44:39.470Z,9.668010
2022-10-06T08:45:39.403Z,9.668003
2022-10-06T08:46:39.467Z,9.667995
2022-10-06T08:47:41.430Z,9.668021
2022-10-06T08:48:39.386Z,9.667982
2022-10-06T08:49:39.403Z,9.667989
2022-10-06T08:50:39.505Z,9.667974
2022-10-06T08:51:39.355Z,9.667972
2022-10-06T08:52:40.221Z,9.667979
2022-10-06T08:53:42.209Z,9.667980
2022-10-06T08:54:48.042Z,9.667919
2022-10-06T08:55:39.397Z,9.667986
2022-10-06T08:56:45.943Z,9.667973
2022-10-06T08:57:39.939Z,9.668010
2022-10-06T08:58:40.942Z,9.668008
2022-10-06T08:59:40.334Z,9.667990
2022-10-06T09:00:39.354Z,9.667998
2022-10-06T09:01:39.403Z,9.667947
2022-10-06T09:02:39.405Z,9.667953
2022-10-06T09:03:41.283Z,9.668013
2022-10-06T09:04:39.316Z,9.668009
2022-10-06T09:05:40.858Z,9.667998
2022-10-06T09:06:40.279Z,9.667970
2022-10-06T09:07:39.318Z,9.667988
2022-10-06T09:08:39.258Z,9.668009
2022-10-06T09:09:41.042Z,9.668023
2022-10-06T09:10:39.437Z,9.668038
2022-10-06T09:11:40.193Z,9.668045
2022-10-06T09:12:39.246Z,9.668045
2022-10-06T09:13:39.178Z,9.668038
2022-10-06T09:14:39.205Z,9.668008
2022-10-06T09:15:39.207Z,9.668017
2022-10-06T09:16:40.437Z,9.667949
2022-10-06T09:17:40.440Z,9.668063
2022-10-06T09:19:03.862Z,9.668024
2022-10-06T09:19:41.241Z,9.668048
2022-10-06T09:20:39.191Z,9.667994
2022-10-06T09:21:39.149Z,9.668021
2022-10-06T09:22:40.680Z,9.668036
2022-10-06T09:23:40.966Z,9.668009
2022-10-06T09:24:42.396Z,9.667927
2022-10-06T09:25:41.019Z,9.668000
2022-10-06T09:26:41.482Z,9.667963
2022-10-06T09:27:40.976Z,9.667961
2022-10-06T09:28:39.192Z,9.668040
2022-10-06T09:29:41.107Z,9.668064
2022-10-06T09:30:39.493Z,9.668067
2022-10-06T09:31:39.175Z,9.667995
2022-10-06T09:32:39.095Z,9.667985
2022-10-06T09:33:39.952Z,9.668038
2022-10-06T09:34:39.071Z,9.668076
2022-10-06T09:35:39.049Z,9.668034
2022-10-06T09:36:39.026Z,9.668026
2022-10-06T09:37:43.455Z,9.668032
2022-10-06T09:38:38.998Z,9.668092
2022-10-06T09:39:38.990Z,9.668039
2022-10-06T09:40:39.646Z,9.668090
2022-10-06T09:41:38.995Z,9.668047
2022-10-06T09:42:39.147Z,9.668073
2022-10-06T09:43:38.940Z,9.668043
2022-10-06T09:44:39.721Z,9.668025
2022-10-06T09:45:39.006Z,9.668060
2022-10-06T09:46:38.909Z,9.668033
2022-10-06T09:47:41.460Z,9.668050
2022-10-06T09:48:39.463Z,9.668032
2022-10-06T09:49:39.029Z,9.668038
2022-10-06T09:50:43.469Z,9.668046
2022-10-06T09:51:39.727Z,9.668006
2022-10-06T09:52:39.600Z,9.668036
2022-10-06T09:53:38.893Z,9.668012
2022-10-06T09:54:39.137Z,9.668064
2022-10-06T09:55:38.906Z,9.668047
2022-10-06T09:56:38.959Z,9.668051
2022-10-06T09:57:38.866Z,9.668056
2022-10-06T09:58:38.871Z,9.668052
2022-10-06T09:59:40.314Z,9.668026
2022-10-06T10:00:40.538Z,9.668031
2022-10-06T10:01:39.495Z,9.668047
2022-10-06T10:02:43.109Z,9.668072
2022-10-06T10:03:41.975Z,9.668036
2022-10-06T10:04:40.557Z,9.668057
2022-10-06T10:05:39.469Z,9.668017
2022-10-06T10:06:38.844Z,9.668025
2022-10-06T10:07:39.718Z,9.667993
2022-10-06T10:08:39.835Z,9.668015
2022-10-06T10:09:46.067Z,9.668027
2022-10-06T10:10:40.609Z,9.668006
2022-10-06T10:11:39.738Z,9.668024
2022-10-06T10:12:42.759Z,9.668072
2022-10-06T10:13:39.675Z,9.668044
2022-10-06T10:14:39.749Z,9.668036
2022-10-06T10:15:38.737Z,9.668055
2022-10-06T10:16:39.660Z,9.668027
2022-10-06T10:17:41.692Z,9.667985
2022-10-06T10:18:38.687Z,9.668032
2022-10-06T10:19:42.545Z,9.668046
2022-10-06T10:20:48.139Z,9.668022
2022-10-06T10:21:47.632Z,9.668049
2022-10-06T10:23:12.057Z,9.668050
2022-10-06T10:24:12.602Z,9.668032
2022-10-06T10:24:38.599Z,9.668068
2022-10-06T10:25:38.594Z,9.668062
2022-10-06T10:27:11.037Z,9.668033
2022-10-06T10:28:11.678Z,9.668069
2022-10-06T10:28:38.600Z,9.668056
2022-10-06T10:29:38.551Z,9.668065
2022-10-06T10:30:38.558Z,9.668060
2022-10-06T10:31:38.615Z,9.668069
2022-10-06T10:32:38.612Z,9.668083
2022-10-06T10:33:38.558Z,9.668063
2022-10-06T10:35:11.696Z,9.668044
2022-10-06T10:36:11.692Z,9.668061
2022-10-06T10:37:12.693Z,9.668091
2022-10-06T10:38:14.759Z,9.668098
2022-10-06T10:39:12.944Z,9.668068
2022-10-06T10:39:38.474Z,9.668071
2022-10-06T10:41:11.864Z,9.668114
2022-10-06T10:45:37.701Z,9.668103
2022-10-06T10:47:11.744Z,9.668086
2022-10-06T10:47:37.704Z,9.668060
2022-10-06T10:48:37.822Z,9.668075
2022-10-06T10:49:37.727Z,9.668040
2022-10-06T10:50:37.696Z,9.668067
2022-10-06T10:51:37.677Z,9.668062
2022-10-06T10:52:37.679Z,9.668052
2022-10-06T10:53:40.277Z,9.668072
2022-10-06T10:54:37.719Z,9.668031
2022-10-06T10:55:37.647Z,9.668011
2022-10-06T10:56:38.155Z,9.668001
2022-10-06T10:57:38.633Z,9.668014
2022-10-06T10:58:37.637Z,9.667996
2022-10-06T10:59:37.682Z,9.668002
2022-10-06T11:00:37.654Z,9.668014
2022-10-06T11:01:37.663Z,9.668015
2022-10-06T11:02:39.655Z,9.668012
2022-10-06T11:03:37.600Z,9.668002
2022-10-06T11:04:38.340Z,9.668021
2022-10-06T11:05:37.584Z,9.668049
2022-10-06T11:06:37.640Z,9.668034
2022-10-06T11:07:37.660Z,9.668062
2022-10-06T11:08:37.597Z,9.668097
2022-10-06T11:09:37.540Z,9.668051
2022-10-06T11:10:37.544Z,9.668056
2022-10-06T11:11:37.536Z,9.668069
2022-10-06T11:12:37.534Z,9.668044
2022-10-06T11:13:37.553Z,9.668051
2022-10-06T11:14:38.448Z,9.668050
2022-10-06T11:15:37.530Z,9.668048
2022-10-06T11:16:37.522Z,9.668050
2022-10-06T11:17:37.538Z,9.668044
2022-10-06T11:18:37.497Z,9.668059
2022-10-06T11:19:37.497Z,9.668063
2022-10-06T11:20:37.449Z,9.668064
2022-10-06T11:21:37.481Z,9.668066
2022-10-06T11:22:37.538Z,9.668074
2022-10-06T11:23:37.455Z,9.668096
2022-10-06T11:24:37.433Z,9.668093
2022-10-06T11:25:37.449Z,9.668072
2022-10-06T11:26:37.393Z,9.668058
2022-10-06T11:27:37.458Z,9.668047
2022-10-06T11:28:37.530Z,9.668058
2022-10-06T11:29:37.412Z,9.668047
2022-10-06T11:30:37.505Z,9.668043
2022-10-06T11:31:38.249Z,9.668031
2022-10-06T11:32:37.411Z,9.668064
2022-10-06T11:33:37.381Z,9.668040
2022-10-06T11:34:37.344Z,9.668000
2022-10-06T11:35:37.382Z,9.668007
2022-10-06T11:36:37.368Z,9.668047
2022-10-06T11:37:37.367Z,9.668056
2022-10-06T11:38:37.346Z,9.668056
2022-10-06T11:39:37.347Z,9.668049
2022-10-06T11:40:37.330Z,9.668065
2022-10-06T11:41:37.404Z,9.668056
2022-10-06T11:42:37.354Z,9.668045
2022-10-06T11:43:37.360Z,9.668056
2022-10-06T11:44:37.268Z,9.668036
2022-10-06T11:45:37.304Z,9.668046
2022-10-06T11:46:40.084Z,9.668073
2022-10-06T11:47:37.328Z,9.668056
2022-10-06T11:48:37.290Z,9.668015
2022-10-06T11:49:37.283Z,9.668056
2022-10-06T11:50:37.871Z,9.668089
2022-10-06T11:51:37.262Z,9.668060
2022-10-06T11:52:37.437Z,9.668036
2022-10-06T11:53:37.225Z,9.667957
2022-10-06T11:54:37.197Z,9.667977
2022-10-06T11:55:37.224Z,9.668008
2022-10-06T11:56:37.245Z,9.668044
2022-10-06T11:57:37.217Z,9.667995
2022-10-06T11:58:42.282Z,9.667976
2022-10-06T11:59:39.157Z,9.668028
2022-10-06T12:00:37.219Z,9.668055
2022-10-06T12:01:37.182Z,9.668054
2022-10-06T12:02:37.277Z,9.668060
2022-10-06T12:03:37.147Z,9.668041
2022-10-06T12:04:37.162Z,9.668092
2022-10-06T12:05:55.904Z,9.668077
2022-10-06T12:06:39.128Z,9.668096
2022-10-06T12:07:37.678Z,9.668064
2022-10-06T12:08:37.146Z,9.668065
2022-10-06T12:09:37.124Z,9.668021
2022-10-06T12:10:37.073Z,9.668013
2022-10-06T12:11:37.103Z,9.668040
2022-10-06T12:12:37.062Z,9.668000
2022-10-06T12:14:26.617Z,9.668061
2022-10-06T12:17:39.061Z,9.667982
2022-10-06T12:18:37.055Z,9.667999
2022-10-06T12:19:37.068Z,9.668028
2022-10-06T12:20:37.046Z,9.668096
2022-10-06T12:21:37.035Z,9.668066
2022-10-06T12:22:37.023Z,9.668046
2022-10-06T12:23:37.022Z,9.668022
2022-10-06T12:24:37.011Z,9.668051
2022-10-06T12:25:37.032Z,9.668036
2022-10-06T12:26:36.937Z,9.668076
2022-10-06T12:27:36.959Z,9.668056